createdAt,value
2018-07-30T00:01:53.493Z,54.44
2018-07-30T00:04:24.485Z,55.48
2018-07-30T00:06:55.504Z,55.29
2018-07-30T00:09:26.489Z,55.85
2018-07-30T00:11:57.514Z,55.21
2018-07-30T00:14:28.476Z,55.72
2018-07-30T00:16:59.488Z,55.83
2018-07-30T00:19:30.481Z,55.23
2018-07-30T00:22:01.489Z,55.74
2018-07-30T00:24:32.484Z,55.76
2018-07-30T00:27:03.474Z,56.35
2018-07-30T00:29:34.481Z,56.45
2018-07-30T00:32:05.494Z,56.02
2018-07-30T00:34:36.469Z,57.13
2018-07-30T00:37:07.474Z,56.22
2018-07-30T00:39:38.477Z,56.65
2018-07-30T00:42:09.478Z,57.64
2018-07-30T00:44:40.550Z,57.42
2018-07-30T00:47:11.462Z,56.70
2018-07-30T00:52:00.281Z,57.49
2018-07-30T00:54:31.358Z,57.33
2018-07-30T00:57:02.345Z,57.56
2018-07-30T00:59:33.657Z,57.76
2018-07-30T01:02:04.537Z,57.45
2018-07-30T01:04:35.461Z,57.40
2018-07-30T01:07:06.493Z,57.56
2018-07-30T01:09:37.500Z,58.28
2018-07-30T01:12:08.544Z,58.46
2018-07-30T01:14:39.481Z,57.16
2018-07-30T01:17:10.510Z,58.01
2018-07-30T01:19:41.484Z,58.10
2018-07-30T01:22:12.513Z,57.63
2018-07-30T01:24:43.476Z,58.36
2018-07-30T01:27:14.489Z,57.90
2018-07-30T01:29:45.505Z,58.75
2018-07-30T01:32:16.482Z,57.78
2018-07-30T01:34:47.520Z,58.89
2018-07-30T01:37:18.567Z,58.02
2018-07-30T01:39:49.495Z,58.76
2018-07-30T01:42:20.709Z,58.32
2018-07-30T01:44:51.593Z,58.24
2018-07-30T01:47:22.501Z,58.57
2018-07-30T01:49:53.482Z,59.52
2018-07-30T01:52:24.480Z,59.56
2018-07-30T01:54:55.580Z,59.56
2018-07-30T01:57:26.483Z,58.91
2018-07-30T02:00:33.480Z,59.28
2018-07-30T02:03:04.537Z,58.63
2018-07-30T02:05:35.467Z,58.54
2018-07-30T02:08:06.610Z,58.79
2018-07-30T02:10:37.509Z,58.35
2018-07-30T02:13:08.561Z,58.30
2018-07-30T02:15:39.498Z,58.31
2018-07-30T02:18:10.517Z,58.56
2018-07-30T02:20:41.561Z,58.08
2018-07-30T02:23:12.549Z,58.32
2018-07-30T02:25:43.468Z,58.05
2018-07-30T02:28:14.437Z,59.65
2018-07-30T02:30:45.472Z,58.87
2018-07-30T02:33:16.597Z,59.59
2018-07-30T02:35:47.474Z,59.38
2018-07-30T02:38:18.507Z,59.70
2018-07-30T02:40:49.452Z,60.33
2018-07-30T02:43:20.527Z,59.61
2018-07-30T02:45:51.644Z,60.49
2018-07-30T02:48:22.502Z,60.11
2018-07-30T02:50:53.480Z,60.04
2018-07-30T02:53:24.437Z,60.09
2018-07-30T02:55:55.405Z,60.78
2018-07-30T02:58:26.437Z,60.66
2018-07-30T03:00:57.464Z,60.39
2018-07-30T03:03:28.442Z,60.09
2018-07-30T03:05:59.445Z,59.41
2018-07-30T03:08:30.509Z,59.07
2018-07-30T03:11:01.481Z,59.50
2018-07-30T03:13:32.490Z,59.53
2018-07-30T03:16:03.511Z,60.10
2018-07-30T03:18:34.460Z,60.92
2018-07-30T03:21:05.450Z,60.64
2018-07-30T03:23:36.549Z,61.25
2018-07-30T03:26:07.480Z,62.00
2018-07-30T03:28:38.575Z,61.69
2018-07-30T03:31:09.562Z,62.64
2018-07-30T03:33:40.543Z,63.03
2018-07-30T03:36:11.500Z,62.31
2018-07-30T03:38:42.515Z,62.90
2018-07-30T03:41:13.517Z,63.12
2018-07-30T03:43:44.506Z,63.18
2018-07-30T03:46:15.484Z,63.39
2018-07-30T03:48:46.496Z,62.55
2018-07-30T03:51:17.519Z,61.96
2018-07-30T03:53:48.460Z,63.23
2018-07-30T03:56:19.518Z,64.45
2018-07-30T03:58:50.485Z,65.10
2018-07-30T04:01:21.486Z,65.32
2018-07-30T04:03:52.516Z,66.03
2018-07-30T04:06:23.505Z,65.62
2018-07-30T04:08:54.597Z,64.45
2018-07-30T04:11:25.690Z,64.84
2018-07-30T04:13:57.017Z,64.89
2018-07-30T04:16:28.403Z,64.72
2018-07-30T04:18:59.481Z,64.41
2018-07-30T04:21:30.475Z,64.94
2018-07-30T04:24:01.468Z,65.86
2018-07-30T04:26:32.499Z,66.03
2018-07-30T04:29:03.457Z,65.14
2018-07-30T04:31:34.425Z,65.21
2018-07-30T04:34:05.749Z,65.51
2018-07-30T04:36:36.903Z,64.84
2018-07-30T04:39:13.596Z,64.37
2018-07-30T04:41:45.334Z,64.37
2018-07-30T04:44:16.422Z,64.63
2018-07-30T04:46:47.503Z,64.31
2018-07-30T04:49:18.600Z,64.87
2018-07-30T04:51:49.533Z,64.86
2018-07-30T04:54:20.485Z,64.64
2018-07-30T04:56:51.496Z,63.38
2018-07-30T04:59:22.480Z,62.68
2018-07-30T05:01:53.459Z,62.77
2018-07-30T05:04:24.462Z,62.30
2018-07-30T05:06:55.448Z,61.87
2018-07-30T05:09:26.504Z,63.81
2018-07-30T05:11:57.499Z,63.49
2018-07-30T05:14:28.423Z,63.07
2018-07-30T05:17:00.034Z,62.97
2018-07-30T05:19:31.422Z,62.94
2018-07-30T05:22:02.478Z,63.61
2018-07-30T05:24:33.828Z,63.96
2018-07-30T05:27:04.583Z,62.93
2018-07-30T05:29:35.549Z,62.71
2018-07-30T05:32:06.495Z,62.17
2018-07-30T05:34:37.505Z,61.60
2018-07-30T05:37:08.696Z,60.61
2018-07-30T05:39:39.569Z,60.53
2018-07-30T05:42:10.505Z,60.23
2018-07-30T05:44:41.472Z,60.34
2018-07-30T05:47:12.449Z,59.96
2018-07-30T05:49:43.478Z,59.05
2018-07-30T05:52:14.508Z,59.41
2018-07-30T05:54:45.513Z,58.60
2018-07-30T05:57:16.456Z,57.79
2018-07-30T05:59:47.463Z,58.42
2018-07-30T06:02:18.461Z,57.43
2018-07-30T06:04:49.463Z,57.65
2018-07-30T06:07:24.184Z,57.80
2018-07-30T06:09:55.382Z,56.86
2018-07-30T06:12:26.526Z,56.78
2018-07-30T06:14:57.494Z,57.50
2018-07-30T06:17:28.461Z,56.32
2018-07-30T06:19:59.615Z,55.62
2018-07-30T06:22:30.529Z,55.78
2018-07-30T06:25:01.493Z,55.05
2018-07-30T06:27:32.523Z,55.40
2018-07-30T06:30:05.561Z,55.32
2018-07-30T06:32:36.506Z,54.12
2018-07-30T06:35:08.299Z,55.13
2018-07-30T06:37:39.578Z,54.38
2018-07-30T06:40:10.477Z,53.82
2018-07-30T06:42:41.468Z,53.94
2018-07-30T06:45:12.473Z,53.92
2018-07-30T06:47:43.469Z,54.40
2018-07-30T06:50:14.481Z,53.99
2018-07-30T06:52:45.455Z,52.72
2018-07-30T06:55:16.479Z,52.14
2018-07-30T06:57:47.505Z,50.78
2018-07-30T07:00:18.457Z,52.34
2018-07-30T07:02:50.001Z,51.09
2018-07-30T07:05:21.204Z,50.67
2018-07-30T07:07:52.369Z,51.15
2018-07-30T07:10:23.378Z,50.69
2018-07-30T07:12:54.485Z,49.41
2018-07-30T07:15:25.488Z,50.22
2018-07-30T07:17:56.571Z,50.04
2018-07-30T07:20:27.572Z,49.90
2018-07-30T07:22:58.506Z,49.48
2018-07-30T07:25:29.461Z,49.77
2018-07-30T07:28:00.477Z,49.03
2018-07-30T07:30:31.522Z,48.29
2018-07-30T07:33:02.489Z,48.25
2018-07-30T07:35:33.461Z,47.75
2018-07-30T07:38:04.509Z,47.06
2018-07-30T07:40:35.455Z,47.38
2018-07-30T07:43:06.529Z,47.67
2018-07-30T07:45:37.442Z,47.54
2018-07-30T07:48:08.515Z,46.46
2018-07-30T07:50:39.675Z,47.33
2018-07-30T07:53:10.499Z,46.08
2018-07-30T07:55:41.481Z,45.38
2018-07-30T07:58:12.490Z,44.98
2018-07-30T08:00:43.481Z,44.90
2018-07-30T08:03:14.501Z,45.34
2018-07-30T08:05:45.518Z,44.28
2018-07-30T08:08:16.489Z,44.22
2018-07-30T08:10:47.588Z,44.07
2018-07-30T08:13:18.526Z,43.08
2018-07-30T08:15:49.477Z,42.87
2018-07-30T08:18:20.489Z,42.65
2018-07-30T08:20:51.513Z,41.45
2018-07-30T08:23:22.523Z,41.60
2018-07-30T08:25:53.583Z,40.96
2018-07-30T08:28:24.524Z,40.86
2018-07-30T08:30:55.714Z,41.05
2018-07-30T08:33:26.561Z,39.75
2018-07-30T08:35:57.575Z,39.63
2018-07-30T08:38:28.496Z,38.21
2018-07-30T08:40:59.440Z,38.71
2018-07-30T08:43:30.485Z,36.65
2018-07-30T08:46:01.498Z,37.26
2018-07-30T08:48:32.545Z,35.40
2018-07-30T08:51:03.544Z,34.77
2018-07-30T08:53:34.497Z,35.13
2018-07-30T08:56:05.510Z,34.55
2018-07-30T08:58:36.575Z,33.82
2018-07-30T09:01:07.596Z,33.28
2018-07-30T09:03:38.610Z,32.18
2018-07-30T09:06:09.551Z,32.37
2018-07-30T09:08:40.498Z,31.73
2018-07-30T09:11:11.506Z,30.74
2018-07-30T09:13:42.554Z,30.76
2018-07-30T09:16:13.527Z,30.51
2018-07-30T09:18:44.493Z,29.82
2018-07-30T09:21:15.465Z,29.73
2018-07-30T09:23:46.496Z,29.40
2018-07-30T09:26:17.509Z,29.16
2018-07-30T09:28:48.472Z,28.77
2018-07-30T09:31:19.500Z,28.05
2018-07-30T09:33:50.483Z,28.96
2018-07-30T09:36:26.805Z,27.43
2018-07-30T09:38:57.441Z,28.71
2018-07-30T09:41:28.481Z,27.18
2018-07-30T09:43:59.492Z,26.96
2018-07-30T09:46:30.461Z,26.79
2018-07-30T09:49:01.501Z,27.48
2018-07-30T09:51:32.591Z,27.15
2018-07-30T09:54:03.525Z,26.34
2018-07-30T09:56:34.678Z,26.86
2018-07-30T09:59:05.605Z,26.28
2018-07-30T10:01:36.481Z,26.41
2018-07-30T10:04:07.462Z,27.87
2018-07-30T10:06:38.464Z,26.71
2018-07-30T10:09:12.457Z,26.82
2018-07-30T10:11:43.470Z,24.87
2018-07-30T10:14:14.701Z,25.27
2018-07-30T10:16:45.535Z,25.20
2018-07-30T10:19:16.502Z,25.43
2018-07-30T10:21:49.451Z,24.87
2018-07-30T10:24:20.467Z,24.71
2018-07-30T10:26:51.492Z,24.96
2018-07-30T10:29:22.517Z,25.29
2018-07-30T10:31:53.504Z,24.18
2018-07-30T10:34:24.525Z,23.73
2018-07-30T10:36:55.502Z,23.83
2018-07-30T10:39:26.464Z,24.13
2018-07-30T10:41:57.538Z,22.79
2018-07-30T10:44:28.493Z,23.99
2018-07-30T10:46:59.469Z,23.25
2018-07-30T10:49:30.511Z,23.48
2018-07-30T10:52:01.492Z,22.81
2018-07-30T10:54:32.489Z,23.51
2018-07-30T10:57:03.505Z,23.31
2018-07-30T10:59:34.815Z,23.26
2018-07-30T11:02:05.279Z,23.13
2018-07-30T11:04:39.781Z,23.40
2018-07-30T11:07:10.280Z,23.09
2018-07-30T11:09:41.422Z,22.66
2018-07-30T11:12:12.493Z,22.98
2018-07-30T11:14:43.543Z,22.95
2018-07-30T11:17:14.530Z,22.53
2018-07-30T11:19:45.512Z,22.28
2018-07-30T11:22:16.468Z,22.38
2018-07-30T11:24:47.485Z,22.04
2018-07-30T11:27:18.496Z,22.37
2018-07-30T11:29:49.491Z,22.91
2018-07-30T11:32:22.547Z,22.40
2018-07-30T11:34:55.520Z,21.85
2018-07-30T11:37:26.525Z,22.50
2018-07-30T11:39:57.712Z,24.17
2018-07-30T11:42:28.541Z,23.03
2018-07-30T11:44:59.508Z,22.27
2018-07-30T11:47:30.524Z,21.42
2018-07-30T11:50:02.047Z,21.94
2018-07-30T11:52:33.297Z,21.70
2018-07-30T11:55:04.391Z,21.29
2018-07-30T11:57:35.476Z,20.47
2018-07-30T12:00:06.521Z,20.96
2018-07-30T12:02:37.525Z,21.32
2018-07-30T12:05:08.491Z,21.18
2018-07-30T12:07:39.468Z,21.13
2018-07-30T12:10:10.522Z,21.95
2018-07-30T12:12:41.461Z,20.81
2018-07-30T12:15:12.295Z,20.83
2018-07-30T12:17:43.350Z,20.78
2018-07-30T12:20:14.417Z,22.13
2018-07-30T12:22:45.481Z,21.90
2018-07-30T12:25:16.508Z,21.37
2018-07-30T12:27:47.469Z,22.92
2018-07-30T12:30:18.558Z,22.11
2018-07-30T12:32:49.518Z,20.33
2018-07-30T12:35:20.529Z,20.37
2018-07-30T12:37:51.601Z,19.93
2018-07-30T12:40:22.489Z,19.85
2018-07-30T12:42:53.457Z,21.74
2018-07-30T12:45:29.625Z,22.39
2018-07-30T12:48:00.549Z,20.94
2018-07-30T12:50:31.542Z,21.38
2018-07-30T12:53:02.432Z,21.17
2018-07-30T12:55:33.464Z,21.09
2018-07-30T12:58:04.618Z,20.68
2018-07-30T13:00:35.517Z,20.16
2018-07-30T13:03:06.527Z,20.98
2018-07-30T13:05:37.505Z,19.54
2018-07-30T13:08:08.516Z,20.07
2018-07-30T13:10:39.512Z,20.84
2018-07-30T13:13:10.534Z,22.08
2018-07-30T13:15:41.473Z,20.64
2018-07-30T13:18:12.447Z,20.49
2018-07-30T13:20:43.578Z,19.09
2018-07-30T13:23:14.499Z,19.02
2018-07-30T13:25:45.475Z,18.65
2018-07-30T13:28:16.484Z,19.03
2018-07-30T13:30:47.527Z,18.37
2018-07-30T13:33:18.503Z,18.93
2018-07-30T13:35:49.605Z,18.35
2018-07-30T13:38:20.501Z,18.20
2018-07-30T13:40:51.702Z,18.25
2018-07-30T13:43:22.565Z,17.97
2018-07-30T13:45:53.505Z,17.35
2018-07-30T13:48:24.487Z,17.95
2018-07-30T13:50:55.493Z,18.79
2018-07-30T13:53:26.579Z,19.67
2018-07-30T13:55:57.557Z,20.00
2018-07-30T13:58:28.534Z,20.01
2018-07-30T14:01:00.031Z,19.23
2018-07-30T14:03:31.367Z,20.59
2018-07-30T14:06:02.406Z,19.74
2018-07-30T14:08:33.466Z,19.93
2018-07-30T14:11:04.569Z,20.92
2018-07-30T14:13:35.531Z,21.09
2018-07-30T14:16:06.520Z,21.20
2018-07-30T14:18:37.611Z,20.85
2018-07-30T14:21:08.533Z,21.20
2018-07-30T14:23:39.594Z,21.32
2018-07-30T14:26:10.595Z,21.77
2018-07-30T14:28:41.635Z,20.52
2018-07-30T14:31:12.617Z,20.67
2018-07-30T14:33:43.600Z,20.04
2018-07-30T14:36:14.733Z,20.36
2018-07-30T14:38:46.514Z,20.06
2018-07-30T14:41:17.549Z,20.31
2018-07-30T14:43:48.505Z,19.69
2018-07-30T14:46:19.550Z,18.67
2018-07-30T14:48:50.503Z,20.27
2018-07-30T14:51:21.551Z,20.58
2018-07-30T14:53:52.539Z,20.85
2018-07-30T14:56:24.029Z,21.72
2018-07-30T14:58:55.403Z,21.50
2018-07-30T15:01:26.526Z,21.76
2018-07-30T15:03:57.647Z,20.75
2018-07-30T15:06:28.609Z,20.94
2018-07-30T15:09:00.489Z,20.86
2018-07-30T15:11:31.574Z,20.67
2018-07-30T15:14:02.600Z,20.65
2018-07-30T15:16:34.731Z,20.87
2018-07-30T15:19:06.254Z,20.68
2018-07-30T15:21:37.434Z,20.93
2018-07-30T15:24:08.557Z,20.53
2018-07-30T15:26:39.549Z,20.11
2018-07-30T15:29:10.558Z,20.69
2018-07-30T15:31:41.509Z,20.49
2018-07-30T15:34:12.524Z,21.30
2018-07-30T15:36:43.582Z,21.24
2018-07-30T15:39:14.544Z,21.43
2018-07-30T15:41:45.530Z,21.23
2018-07-30T15:44:16.591Z,22.27
2018-07-30T15:46:47.563Z,22.05
2018-07-30T15:52:09.579Z,21.73
2018-07-30T15:54:40.541Z,21.64
2018-07-30T15:57:11.554Z,22.11
2018-07-30T15:59:42.522Z,23.22
2018-07-30T16:02:13.501Z,22.09
2018-07-30T16:04:44.497Z,22.83
2018-07-30T16:07:15.603Z,22.25
2018-07-30T16:09:46.500Z,24.35
2018-07-30T16:12:17.483Z,23.40
2018-07-30T16:14:48.483Z,23.47
2018-07-30T16:17:39.564Z,23.26
2018-07-30T16:20:11.218Z,22.93
2018-07-30T16:22:42.400Z,23.36
2018-07-30T16:25:13.445Z,23.13
2018-07-30T16:27:44.481Z,23.93
2018-07-30T16:30:15.509Z,23.34
2018-07-30T16:32:46.509Z,23.61
2018-07-30T16:35:17.533Z,23.57
2018-07-30T16:37:48.473Z,23.35
2018-07-30T16:40:19.565Z,24.59
2018-07-30T16:42:50.525Z,24.81
2018-07-30T16:45:21.465Z,23.80
2018-07-30T16:47:52.509Z,23.74
2018-07-30T16:50:23.505Z,24.71
2018-07-30T16:52:54.517Z,24.29
2018-07-30T16:55:25.484Z,24.22
2018-07-30T16:57:56.487Z,23.69
2018-07-30T17:00:27.450Z,24.00
2018-07-30T17:02:58.662Z,24.71
2018-07-30T17:05:29.546Z,24.50
2018-07-30T17:08:00.489Z,24.84
2018-07-30T17:10:31.500Z,24.31
2018-07-30T17:13:02.495Z,24.23
2018-07-30T17:15:33.504Z,24.15
2018-07-30T17:18:04.586Z,24.79
2018-07-30T17:20:35.556Z,24.66
2018-07-30T17:23:06.629Z,24.81
2018-07-30T17:25:37.488Z,24.45
2018-07-30T17:28:08.500Z,25.76
2018-07-30T17:30:39.460Z,24.76
2018-07-30T17:33:10.509Z,24.29
2018-07-30T17:35:41.469Z,24.08
2018-07-30T17:38:12.553Z,25.01
2018-07-30T17:40:43.477Z,24.93
2018-07-30T17:43:14.509Z,25.79
2018-07-30T17:45:45.557Z,25.31
2018-07-30T17:48:16.555Z,26.43
2018-07-30T17:50:47.476Z,26.54
2018-07-30T17:53:18.508Z,27.17
2018-07-30T17:55:49.526Z,26.95
2018-07-30T17:58:20.511Z,26.97
2018-07-30T18:00:52.273Z,27.04
2018-07-30T18:03:23.381Z,27.18
2018-07-30T18:05:54.505Z,27.50
2018-07-30T18:08:25.468Z,28.11
2018-07-30T18:10:56.582Z,27.87
2018-07-30T18:13:27.602Z,28.52
2018-07-30T18:15:58.526Z,28.46
2018-07-30T18:18:29.481Z,26.98
2018-07-30T18:21:00.513Z,27.98
2018-07-30T18:23:31.521Z,27.72
2018-07-30T18:26:02.521Z,28.22
2018-07-30T18:28:33.471Z,27.85
2018-07-30T18:31:04.451Z,28.58
2018-07-30T18:33:35.634Z,28.23
2018-07-30T18:36:06.488Z,28.64
2018-07-30T18:38:37.470Z,28.51
2018-07-30T18:41:08.850Z,28.46
2018-07-30T18:43:39.295Z,28.34
2018-07-30T18:46:17.218Z,28.52
2018-07-30T18:48:48.369Z,28.22
2018-07-30T18:51:19.412Z,29.24
2018-07-30T18:53:50.497Z,28.96
2018-07-30T18:56:21.488Z,29.33
2018-07-30T18:58:52.477Z,28.52
2018-07-30T19:01:23.440Z,28.83
2018-07-30T19:03:54.497Z,29.87
2018-07-30T19:06:25.482Z,29.97
2018-07-30T19:08:56.462Z,30.32
2018-07-30T19:11:27.452Z,29.93
2018-07-30T19:13:58.561Z,30.40
2018-07-30T19:16:29.519Z,30.21
2018-07-30T19:19:00.517Z,30.59
2018-07-30T19:21:31.508Z,30.60
2018-07-30T19:24:02.628Z,30.68
2018-07-30T19:26:33.522Z,31.05
2018-07-30T19:29:04.462Z,31.64
2018-07-30T19:31:35.456Z,32.66
2018-07-30T19:34:07.028Z,31.90
2018-07-30T19:36:38.236Z,32.50
2018-07-30T19:39:12.850Z,31.77
2018-07-30T19:41:43.624Z,32.99
2018-07-30T19:44:14.565Z,32.38
2018-07-30T19:46:45.498Z,33.15
2018-07-30T19:49:16.474Z,32.06
2018-07-30T19:51:47.595Z,32.55
2018-07-30T19:54:18.494Z,32.18
2018-07-30T19:56:49.502Z,32.41
2018-07-30T19:59:20.489Z,31.98
2018-07-30T20:01:51.661Z,32.14
2018-07-30T20:04:22.581Z,31.48
2018-07-30T20:06:53.507Z,31.80
2018-07-30T20:09:24.516Z,32.19
2018-07-30T20:11:55.523Z,31.80
2018-07-30T20:14:26.493Z,32.16
2018-07-30T20:16:57.512Z,32.77
2018-07-30T20:19:28.513Z,32.66
2018-07-30T20:21:59.485Z,32.69
2018-07-30T20:24:30.555Z,35.27
2018-07-30T20:27:01.529Z,34.41
2018-07-30T20:29:32.506Z,36.03
2018-07-30T20:32:03.507Z,35.05
2018-07-30T20:34:34.505Z,35.70
2018-07-30T20:37:05.518Z,34.57
2018-07-30T20:39:36.552Z,33.72
2018-07-30T20:42:08.381Z,34.07
2018-07-30T20:44:39.552Z,36.48
2018-07-30T20:47:10.565Z,34.58
2018-07-30T20:49:41.536Z,34.10
2018-07-30T20:52:12.533Z,35.08
2018-07-30T20:54:43.503Z,34.94
2018-07-30T20:57:14.500Z,34.84
2018-07-30T20:59:45.638Z,34.63
2018-07-30T21:02:16.539Z,35.49
2018-07-30T21:04:47.564Z,34.73
2018-07-30T21:07:18.565Z,35.98
2018-07-30T21:09:49.537Z,35.90
2018-07-30T21:12:20.500Z,35.33
2018-07-30T21:14:51.582Z,36.49
2018-07-30T21:17:22.591Z,35.55
2018-07-30T21:19:53.614Z,36.55
2018-07-30T21:22:24.592Z,37.99
2018-07-30T21:24:55.606Z,38.90
2018-07-30T21:27:27.561Z,40.69
2018-07-30T21:29:59.837Z,39.09
2018-07-30T21:32:30.555Z,37.93
2018-07-30T21:35:01.538Z,37.99
2018-07-30T21:37:32.502Z,38.38
2018-07-30T21:40:03.521Z,39.17
2018-07-30T21:42:34.518Z,38.78
2018-07-30T21:45:05.512Z,38.45
2018-07-30T21:47:36.662Z,38.68
2018-07-30T21:50:08.204Z,39.56
2018-07-30T21:52:39.378Z,39.14
2018-07-30T21:55:10.501Z,38.96
2018-07-30T21:57:42.488Z,39.15
2018-07-30T22:00:22.387Z,39.82
2018-07-30T22:02:55.403Z,40.33
2018-07-30T22:05:26.659Z,39.61
2018-07-30T22:07:57.561Z,40.49
2018-07-30T22:10:28.536Z,41.14
2018-07-30T22:12:59.526Z,41.63
2018-07-30T22:15:30.487Z,41.22
2018-07-30T22:18:01.483Z,41.12
2018-07-30T22:20:32.483Z,40.37
2018-07-30T22:23:03.532Z,41.61
2018-07-30T22:25:34.517Z,41.82
2018-07-30T22:28:05.687Z,41.20
2018-07-30T22:30:36.702Z,42.10
2018-07-30T22:33:07.553Z,41.35
2018-07-30T22:35:38.505Z,43.50
2018-07-30T22:38:09.545Z,42.22
2018-07-30T22:40:40.506Z,42.28
2018-07-30T22:43:12.009Z,41.87
2018-07-30T22:45:43.263Z,43.68
2018-07-30T22:48:14.458Z,43.58
2018-07-30T22:50:45.487Z,43.75
2018-07-30T22:56:02.514Z,43.08
2018-07-30T22:58:33.474Z,42.77
2018-07-30T23:01:04.522Z,43.07
2018-07-30T23:03:35.469Z,43.54
2018-07-30T23:06:08.245Z,43.56
2018-07-30T23:08:39.401Z,43.60
2018-07-30T23:11:10.490Z,43.72
2018-07-30T23:13:41.486Z,43.03
2018-07-30T23:16:12.546Z,43.37
2018-07-30T23:18:43.538Z,44.60
2018-07-30T23:21:14.525Z,44.06
2018-07-30T23:23:45.488Z,44.82
2018-07-30T23:26:16.477Z,45.30
2018-07-30T23:28:47.446Z,44.60
2018-07-30T23:31:18.471Z,44.74
2018-07-30T23:33:49.468Z,44.67
2018-07-30T23:36:20.489Z,45.19
2018-07-30T23:38:51.493Z,44.68
2018-07-30T23:41:22.485Z,44.33
2018-07-30T23:43:53.466Z,45.79
2018-07-30T23:46:24.568Z,45.00
2018-07-30T23:48:55.732Z,44.90
2018-07-30T23:51:26.607Z,45.71
2018-07-30T23:53:57.624Z,45.51
2018-07-30T23:56:28.692Z,45.74
2018-07-30T23:59:01.042Z,46.32
